Flight Track Log - Related Links

Times and Time Zones

All times are in EDT time to prevent confusion due to time zone crossing. See the ASQ5941 flight status page for this flight to view local times or setup timezone preferences in your user account.


Time Position Orientation Groundspeed Altitude Reporting Facility
EDT Latitude Longitude Course Direction KTS MPH feet Rate Location/Type
Fri 08:06:29 PM 41.2811 -75.8094 240° Southwest 232 267 4,800  Level New York Center
Fri 08:07:30 PM 41.3503 -75.8533 335° Northwest 284 327 7,300 2,231 Climbing New York Center
Fri 08:08:00 PM 41.4261 -75.9404 315° West  Level FlightAware Approximate
Fri 08:08:30 PM 41.4219 -75.8808 344° North 283 326 9,300  Level New York Center
Fri 08:09:00 PM 41.4748 -76.0275 315° West  Level FlightAware Approximate
Fri 08:09:31 PM 41.4994 -75.9172 341° North 283 326 10,500  Level New York Center
Fri 08:10:00 PM 41.5317 -76.1059 312° West  Level FlightAware Approximate
Fri 08:10:29 PM 41.5931 -75.9661 339° North 311 358 11,800  Level New York Center
Fri 08:11:29 PM 41.6367 -76.0667 300° West 318 366 12,700 595 Climbing New York Center
Fri 08:12:30 PM 41.6750 -76.1864 293° West 328 377 13,000 885 Climbing New York Center
Fri 08:13:31 PM 41.7125 -76.3228 290° West 346 398 14,500 942 Climbing New York Center
Fri 08:14:31 PM 41.7461 -76.4450 290° West 352 405 14,900 203 Climbing New York Center
Fri 08:15:29 PM 41.7803 -76.5592 292° West 347 399 14,900  Level New York Center
Fri 08:16:30 PM 41.8067 -76.6589 290° West 314 361 14,900 650 Level New York Center
Fri 08:17:29 PM 41.8331 -76.7558 290° West 295 339 16,200 1,500 Climbing New York Center
Fri 08:18:30 PM 41.8611 -76.8589 290° West 290 334 17,900 1,574 Climbing New York Center
Fri 08:19:31 PM 41.8889 -76.9672 289° West 298 343 19,400 1,658 Climbing New York Center
Fri 08:19:46 PM 41.9019 -77.0008 298° West 300 345 20,000 2,080 Climbing Cleveland Center
Fri 08:20:46 PM 41.9325 -77.1108 291° West 312 359 22,000 1,700 Climbing Cleveland Center
Fri 08:21:46 PM 41.9608 -77.2236 289° West 312 359 23,400 1,400 Climbing Cleveland Center
Fri 08:22:46 PM 41.9933 -77.3394 291° West 325 374 24,800 1,100 Climbing Cleveland Center
Fri 08:23:46 PM 42.0214 -77.4469 289° West 335 386 25,600 900 Climbing Cleveland Center
Fri 08:24:46 PM 42.0561 -77.5739 290° West 350 403 26,600 1,050 Climbing Cleveland Center
Fri 08:25:46 PM 42.0908 -77.7039 290° West 362 417 27,700 1,059 Climbing Cleveland Center
Fri 08:26:45 PM 42.1250 -77.8311 290° West 362 417 28,700 1,008 Climbing Cleveland Center
Fri 08:27:45 PM 42.1594 -77.9583 290° West 362 417 29,700 992 Climbing Cleveland Center
Fri 08:28:46 PM 42.1914 -78.0917 288° West 362 417 30,700 1,000 Climbing Cleveland Center
Fri 08:29:45 PM 42.2256 -78.2250 289° West 362 417 31,700 1,000 Climbing Cleveland Center
Fri 08:30:46 PM 42.2594 -78.3583 289° West 367 422 32,700 992 Climbing Cleveland Center
Fri 08:31:46 PM 42.2953 -78.4947 290° West 373 429 33,700 650 Climbing Cleveland Center
Fri 08:32:46 PM 42.3311 -78.6339 289° West 383 441 34,000 150 Climbing Cleveland Center
Fri 08:33:46 PM 42.3692 -78.7817 289° West 395 455 34,000  Level Cleveland Center
Fri 08:34:46 PM 42.4069 -78.9411 288° West 402 463 34,000  Level Cleveland Center
Fri 08:35:46 PM 42.4464 -79.0892 290° West 407 468 34,000  Level Cleveland Center
Fri 08:36:46 PM 42.4772 -79.2206 288° West 407 468 34,000 550 Level Cleveland Center
Fri 08:37:46 PM 42.4975 -79.3694 281° West 407 468 35,100 1,000 Climbing Cleveland Center
Fri 08:38:46 PM 42.5031 -79.5103 273° West 396 456 36,000 450 Climbing Cleveland Center
Fri 08:39:46 PM 42.5108 -79.6594 274° West 390 449 36,000  Level Cleveland Center
Fri 08:40:45 PM 42.5181 -79.8028 274° West 390 449 36,000  Level Cleveland Center
Fri 08:41:46 PM 42.5253 -79.9494 274° West 385 443 36,000  Level Cleveland Center
Fri 08:42:46 PM 42.5281 -80.0958 272° West 385 443 36,000  Level Cleveland Center
Fri 08:43:46 PM 42.5347 -80.2422 274° West 391 450 36,000  Level Cleveland Center
Fri 08:44:45 PM 42.5433 -80.3917 275° West 397 457 36,000  Level Cleveland Center
Fri 08:45:46 PM 42.5456 -80.5381 271° West 397 457 36,000  Level Cleveland Center
Fri 08:46:45 PM 42.5539 -80.6903 274° West 402 463 36,000  Level Cleveland Center
Fri 08:47:46 PM 42.5578 -80.8453 272° West 395 455 36,000  Level Cleveland Center
Fri 08:48:46 PM 42.5636 -80.9919 273° West 390 449 36,000  Level Cleveland Center
Fri 08:49:45 PM 42.5694 -81.1414 273° West 395 455 36,000  Level Cleveland Center
Fri 08:50:45 PM 42.5747 -81.2908 273° West 403 464 36,000  Level Cleveland Center
Fri 08:51:46 PM 42.5819 -81.4375 274° West 403 464 36,000  Level Cleveland Center
Fri 08:52:46 PM 42.6081 -81.5875 283° West 408 470 36,000  Level Cleveland Center
Fri 08:53:46 PM 42.6317 -81.7344 282° West 408 470 36,000  Level Cleveland Center
Fri 08:54:46 PM 42.6572 -81.8819 283° West 408 470 36,000  Level Cleveland Center
Fri 08:55:45 PM 42.6867 -82.0350 285° West 408 470 36,000  Level Cleveland Center
Fri 08:56:46 PM 42.7075 -82.1825 281° West 414 476 36,000  Level Cleveland Center
Fri 08:57:46 PM 42.7367 -82.3331 285° West 409 471 36,000  Level Cleveland Center
Fri 08:58:45 PM 42.7614 -82.4808 283° West 409 471 36,000  Level Cleveland Center
Fri 08:59:46 PM 42.7858 -82.6314 283° West 414 476 36,000  Level Cleveland Center
Fri 09:00:46 PM 42.8103 -82.7822 283° West 414 476 36,000  Level Cleveland Center
Fri 09:01:46 PM 42.8364 -82.9275 284° West 414 476 36,000  Level Cleveland Center
Fri 09:02:46 PM 42.8606 -83.0758 283° West 409 471 36,000 -350 Level Cleveland Center
Fri 09:03:46 PM 42.8697 -83.2233 275° West 409 471 35,300 -850 Descending Cleveland Center
Fri 09:04:46 PM 42.8683 -83.3764 269° West 409 471 34,300 -655 Descending Cleveland Center
Fri 09:05:45 PM 42.8644 -83.5236 268° West 402 463 34,000 -150 Descending Cleveland Center
Fri 09:06:46 PM 42.8647 -83.6708 270° West 402 463 34,000  Level Cleveland Center
Fri 09:07:46 PM 42.8611 -83.8094 268° West 402 463 34,000  Level Cleveland Center
Fri 09:08:46 PM 42.8608 -83.9597 270° West 402 463 34,000  Level Cleveland Center
Fri 09:09:45 PM 42.8583 -84.1125 269° West 402 463 34,000  Level Cleveland Center
Fri 09:10:45 PM 42.8578 -84.2656 270° West 402 463 34,000 -450 Level Cleveland Center
Fri 09:11:45 PM 42.8567 -84.4269 270° West 397 457 33,100 -893 Descending Cleveland Center
Fri 09:12:46 PM 42.8494 -84.5767 266° West 397 457 32,200 -545 Descending Cleveland Center
Fri 09:13:46 PM 42.8397 -84.7233 265° West 397 457 32,000 -98 Descending Chicago Center
Fri 09:14:48 PM 42.8297 -84.8761 265° West 403 464 32,000  Level Chicago Center
Fri 09:15:50 PM 42.8194 -85.0281 265° West 403 464 32,000 -49 Level Chicago Center
Fri 09:16:51 PM 42.8086 -85.1833 265° West 410 472 31,900 -1,415 Descending Chicago Center
Fri 09:17:53 PM 42.7986 -85.3322 265° West 401 461 29,100 -2,661 Descending Chicago Center
Fri 09:18:55 PM 42.7872 -85.4750 264° West 386 444 26,400 -2,081 Descending Chicago Center
Fri 09:19:57 PM 42.7647 -85.6178 258° West 383 441 24,800 -1,452 Descending Chicago Center
Fri 09:20:59 PM 42.7333 -85.7908 256° West 390 449 23,400 -1,694 Descending Chicago Center
Fri 09:22:01 PM 42.7083 -85.9300 256° West 379 436 21,300 -1,645 Descending Chicago Center
Fri 09:23:03 PM 42.6844 -86.0636 256° West 367 422 20,000 -634 Descending Chicago Center
Fri 09:24:04 PM 42.6167 -86.1361 218° Southwest 350 403 20,000  Level Chicago Center
Fri 09:25:06 PM 42.5550 -86.0564 136° Southeast 333 383 20,000  Level Chicago Center
Fri 09:26:08 PM 42.5733 -85.9369 78° East 328 377 20,000  Level Chicago Center
Fri 09:27:10 PM 42.5956 -85.8200 75° East 325 374 20,000  Level Chicago Center
Fri 09:28:11 PM 42.6228 -85.6811 75° East 322 371 20,000  Level Chicago Center
Fri 09:29:13 PM 42.6811 -85.6050 44° Northeast 310 357 20,000  Level Chicago Center
Fri 09:30:15 PM 42.7475 -85.6536 332° Northwest 281 323 20,000  Level Chicago Center
Fri 09:31:16 PM 42.7444 -85.7539 268° West 274 315 20,000  Level Chicago Center
Fri 09:32:18 PM 42.7247 -85.8547 255° West 274 315 20,000  Level Chicago Center
Fri 09:33:20 PM 42.7050 -85.9558 255° West 275 316 20,000  Level Chicago Center
Fri 09:34:21 PM 42.6847 -86.0592 255° West 281 323 20,000  Level Chicago Center
Fri 09:35:23 PM 42.6247 -86.1119 213° Southwest 297 342 20,000  Level Chicago Center
Fri 09:36:25 PM 42.5942 -85.9953 110° East 316 364 20,000  Level Chicago Center
Fri 09:37:26 PM 42.6167 -85.8789 75° East 322 371 20,000  Level Chicago Center
Fri 09:38:28 PM 42.6394 -85.7622 75° East 323 372 20,000  Level Chicago Center
Fri 09:39:30 PM 42.6683 -85.6489 71° East 323 372 20,000  Level Chicago Center
Fri 09:40:31 PM 42.7408 -85.6519 358° North 292 336 20,000  Level Chicago Center
Fri 09:41:33 PM 42.7447 -85.7481 273° West 271 312 20,000  Level Chicago Center
Fri 09:42:34 PM 42.7261 -85.8481 256° West 271 312 20,000  Level Chicago Center
Fri 09:43:36 PM 42.7022 -85.9681 255° West 273 314 20,000  Level Chicago Center
Fri 09:44:37 PM 42.6836 -86.0664 256° West 270 311 20,000  Level Chicago Center
Fri 09:45:39 PM 42.6222 -86.1197 213° Southwest 281 323 20,000  Level Chicago Center
Fri 09:46:40 PM 42.5842 -86.2164 242° Southwest 303 349 20,000  Level Chicago Center
Fri 09:47:42 PM 42.5606 -86.3489 256° West 346 398 20,000 -732 Level Chicago Center
Fri 09:48:43 PM 42.5372 -86.4856 257° West 375 432 18,500 -2,341 Descending Chicago Center
Fri 09:49:45 PM 42.5164 -86.6156 258° West 359 413 15,200 -2,585 Descending Chicago Center
Fri 09:50:46 PM 42.4964 -86.7508 259° West 363 418 13,200 -2,000 Descending Chicago Center
Fri 09:51:48 PM 42.4733 -86.8836 257° West 362 417 11,100 -1,561 Descending Chicago Center
Fri 09:52:49 PM 42.4467 -87.0381 257° West 353 406 10,000 -537 Descending Chicago Center
Fri 09:53:51 PM 42.4247 -87.1656 257° West 349 402 10,000 -49 Level Chicago Center
Fri 09:54:52 PM 42.4042 -87.2872 257° West 335 386 9,900  Descending Chicago Center
Fri 09:55:53 PM 42.3786 -87.3917 252° West 300 345 10,000 -293 Climbing Chicago Center
Fri 09:56:55 PM 42.3514 -87.4867 249° West 292 336 9,300 -1,317 Descending Chicago Center
Fri 09:57:56 PM 42.2942 -87.5822 231° Southwest 280 322 7,300 -1,122 Descending Chicago Center
Fri 09:58:58 PM 42.2325 -87.6486 219° Southwest 283 326 7,000 -146 Descending Chicago Center
Fri 09:59:59 PM 42.1761 -87.7075 218° Southwest 259 298 7,000 -49 Level Chicago Center
Fri 10:01:01 PM 42.1231 -87.7622 217° Southwest 245 282 6,900 71 Descending Chicago Center
Fri 10:01:24 PM 42.1000 -87.7833 214° Southwest 220 253 7,100 135 Climbing Chicago TRACON
Fri 10:02:30 PM 42.1000 -87.8667 270° West 200 230 7,100  Level Chicago TRACON
Fri 10:03:24 PM 42.1000 -87.9333 270° West 201 231 7,100  Level Chicago TRACON
Fri 10:04:24 PM 42.1000 -88.0167 270° West 201 231 7,100 -397 Level Chicago TRACON
Fri 10:05:25 PM 42.1000 -88.0833 270° West 193 222 6,300 -981 Descending Chicago TRACON
Fri 10:06:08 PM 42.0908 -88.1344 256° West 197 227 5,400 -1,212 Descending Chicago Center
Fri 10:07:09 PM 42.0903 -88.2075 269° West 197 227 4,200 -738 Descending Chicago Center
Fri 10:08:10 PM 42.0906 -88.2783 270° West 193 222 3,900 -98 Descending Chicago Center
Fri 10:09:12 PM 42.0900 -88.3439 269° West 185 213 4,000 49 Climbing Chicago Center
Fri 10:10:13 PM 42.0781 -88.4122 257° West 197 227 4,000  Level Chicago Center
Fri 10:11:15 PM 42.0417 -88.4517 219° Southwest 207 238 4,000  Level Chicago Center
Fri 10:12:16 PM 41.9822 -88.4353 168° South 197 227 4,000  Level Chicago Center
Fri 10:13:17 PM 41.9811 -88.3664 91° East 186 214 4,000  Level Chicago Center
Fri 10:14:19 PM 41.9828 -88.3011 88° East 180 207 4,000  Level Chicago Center
Fri 10:15:20 PM 41.9844 -88.2353 88° East 178 205 4,000  Level Chicago Center
Fri 10:16:22 PM 41.9842 -88.1689 90° East 177 204 4,000 -286 Level Chicago Center
Fri 10:17:26 PM 41.9833 -88.1000 91° East 177 204 3,400 -726 Descending Chicago TRACON
Fri 10:18:26 PM 41.9833 -88.0333 90° East 172 198 2,500 -850 Descending Chicago TRACON
Fri 10:19:26 PM 41.9833 -87.9833 90° East 131 151 1,700 -800 Descending Chicago TRACON
Fri 10:20:26 PM 41.9833 -87.9333 90° East 135 155 900 -800 Descending Chicago TRACON

Login

Don't have an account? Register now (free) for customized features, flight alerts, and more!